createdAt,value
2023-04-29T00:00:37.057Z,14.30
2023-04-29T00:03:29.505Z,14.28
2023-04-29T00:06:21.881Z,14.23
2023-04-29T00:09:11.499Z,14.24
2023-04-29T00:12:01.206Z,14.22
2023-04-29T00:14:54.320Z,14.19
2023-04-29T00:17:43.571Z,14.20
2023-04-29T00:20:33.022Z,14.17
2023-04-29T00:23:23.760Z,14.13
2023-04-29T00:26:13.186Z,14.11
2023-04-29T00:29:07.030Z,14.09
2023-04-29T00:31:56.487Z,14.06
2023-04-29T00:34:46.274Z,13.99
2023-04-29T00:37:36.370Z,13.92
2023-04-29T00:40:28.729Z,14.03
2023-04-29T00:43:18.023Z,13.99
2023-04-29T00:46:07.485Z,13.98
2023-04-29T00:48:57.032Z,13.96
2023-04-29T00:51:46.388Z,13.91
2023-04-29T00:54:36.422Z,13.87
2023-04-29T00:57:29.224Z,13.83
2023-04-29T01:00:19.514Z,13.83
2023-04-29T01:03:10.273Z,13.77
2023-04-29T01:06:10.485Z,13.71
2023-04-29T01:09:28.295Z,13.70
2023-04-29T01:12:27.660Z,13.63
2023-04-29T01:15:25.447Z,13.62
2023-04-29T01:18:25.809Z,13.55
2023-04-29T01:21:15.725Z,13.55
2023-04-29T01:24:06.516Z,13.61
2023-04-29T01:27:03.311Z,13.60
2023-04-29T01:30:12.631Z,13.52
2023-04-29T01:33:12.765Z,13.52
2023-04-29T01:36:17.933Z,13.47
2023-04-29T01:39:18.003Z,13.50
2023-04-29T01:42:24.008Z,13.48
2023-04-29T01:45:18.579Z,13.52
2023-04-29T01:48:08.814Z,13.48
2023-04-29T01:50:58.186Z,13.49
2023-04-29T01:53:47.506Z,13.51
2023-04-29T01:56:38.384Z,13.49
2023-04-29T01:59:39.160Z,13.43
2023-04-29T02:02:38.900Z,13.41
2023-04-29T02:05:38.385Z,13.36
2023-04-29T02:08:28.509Z,13.34
2023-04-29T02:11:19.189Z,13.28
2023-04-29T02:14:10.254Z,13.30
2023-04-29T02:16:59.644Z,13.29
2023-04-29T02:19:49.014Z,13.27
2023-04-29T02:22:38.401Z,13.23
2023-04-29T02:25:27.722Z,13.19
2023-04-29T02:28:18.016Z,13.20
2023-04-29T02:31:08.716Z,13.15
2023-04-29T02:33:58.846Z,13.15
2023-04-29T02:36:48.045Z,13.14
2023-04-29T02:39:37.297Z,13.11
2023-04-29T02:42:26.682Z,13.08
2023-04-29T02:45:16.201Z,13.09
2023-04-29T02:48:07.998Z,13.03
2023-04-29T02:50:57.315Z,13.09
2023-04-29T02:53:46.600Z,13.07
2023-04-29T02:56:35.876Z,13.10
2023-04-29T02:59:26.628Z,13.07
2023-04-29T03:02:16.412Z,13.13
2023-04-29T03:05:11.132Z,13.11
2023-04-29T03:08:00.537Z,13.18
2023-04-29T03:10:51.388Z,13.16
2023-04-29T03:13:41.576Z,13.24
2023-04-29T03:16:31.616Z,13.26
2023-04-29T03:19:20.890Z,13.30
2023-04-29T03:22:13.748Z,13.32
2023-04-29T03:25:05.999Z,13.34
2023-04-29T03:27:57.472Z,13.37
2023-04-29T03:30:47.305Z,13.43
2023-04-29T03:33:36.583Z,13.47
2023-04-29T03:36:26.239Z,13.54
2023-04-29T03:39:32.819Z,13.60
2023-04-29T03:42:22.306Z,13.63
2023-04-29T03:45:14.558Z,13.67
2023-04-29T03:48:03.894Z,13.68
2023-04-29T03:50:54.400Z,13.69
2023-04-29T03:53:47.299Z,13.69
2023-04-29T03:56:39.682Z,13.70
2023-04-29T03:59:29.201Z,13.70
2023-04-29T04:02:21.762Z,13.70
2023-04-29T04:05:12.311Z,13.74
2023-04-29T04:08:10.714Z,13.78
2023-04-29T04:11:15.365Z,13.84
2023-04-29T04:14:10.076Z,13.89
2023-04-29T04:16:59.437Z,13.88
2023-04-29T04:19:48.853Z,13.86
2023-04-29T04:22:39.394Z,13.85
2023-04-29T04:25:39.955Z,13.89
2023-04-29T04:29:01.553Z,13.87
2023-04-29T04:32:12.492Z,13.92
2023-04-29T04:35:02.378Z,13.94
2023-04-29T04:37:52.359Z,13.95
2023-04-29T04:40:43.493Z,13.84
2023-04-29T04:43:45.322Z,13.95
2023-04-29T04:46:44.664Z,14.03
2023-04-29T04:49:41.577Z,14.08
2023-04-29T04:52:31.111Z,14.10
2023-04-29T04:55:39.182Z,14.07
2023-04-29T04:58:28.505Z,14.14
2023-04-29T05:01:17.985Z,14.12
2023-04-29T05:04:07.818Z,14.09
2023-04-29T05:06:58.622Z,14.08
2023-04-29T05:09:53.073Z,14.07
2023-04-29T05:12:43.771Z,14.07
2023-04-29T05:15:33.114Z,14.10
2023-04-29T05:18:23.592Z,14.13
2023-04-29T05:21:16.522Z,14.16
2023-04-29T05:24:09.064Z,14.17
2023-04-29T05:26:58.553Z,14.15
2023-04-29T05:29:47.929Z,14.17
2023-04-29T05:32:37.361Z,14.14
2023-04-29T05:35:28.872Z,14.14
2023-04-29T05:38:18.380Z,14.04
2023-04-29T05:41:18.976Z,14.08
2023-04-29T05:44:29.212Z,14.11
2023-04-29T05:47:18.548Z,14.11
2023-04-29T05:50:13.866Z,14.13
2023-04-29T05:53:03.216Z,14.13
2023-04-29T05:55:52.784Z,14.13
2023-04-29T05:58:45.329Z,14.19
2023-04-29T06:01:34.877Z,14.21
2023-04-29T06:04:26.577Z,14.31
2023-04-29T06:07:37.014Z,14.36
2023-04-29T06:10:34.506Z,14.38
2023-04-29T06:13:23.790Z,14.46
2023-04-29T06:16:15.338Z,14.46
2023-04-29T06:19:05.090Z,14.58
2023-04-29T06:21:54.751Z,14.62
2023-04-29T06:24:44.158Z,14.72
2023-04-29T06:27:36.710Z,14.79
2023-04-29T06:30:26.011Z,14.86
2023-04-29T06:33:16.774Z,14.93
2023-04-29T06:36:07.444Z,14.98
2023-04-29T06:39:15.832Z,15.03
2023-04-29T06:42:18.617Z,15.08
2023-04-29T06:45:28.356Z,15.17
2023-04-29T06:48:24.403Z,15.27
2023-04-29T06:51:13.936Z,15.35
2023-04-29T06:54:03.351Z,15.41
2023-04-29T06:56:52.817Z,15.49
2023-04-29T06:59:42.430Z,15.63
2023-04-29T07:02:32.333Z,15.76
2023-04-29T07:05:23.510Z,15.89
2023-04-29T07:08:14.247Z,16.02
2023-04-29T07:11:04.405Z,16.06
2023-04-29T07:13:54.986Z,16.10
2023-04-29T07:16:44.436Z,16.19
2023-04-29T07:19:34.246Z,16.10
2023-04-29T07:22:27.725Z,16.18
2023-04-29T07:25:17.264Z,16.24
2023-04-29T07:28:08.511Z,16.22
2023-04-29T07:30:57.942Z,16.28
2023-04-29T07:33:47.670Z,16.30
2023-04-29T07:36:38.082Z,16.34
2023-04-29T07:39:29.313Z,16.35
2023-04-29T07:42:20.068Z,16.39
2023-04-29T07:45:10.847Z,16.38
2023-04-29T07:48:00.422Z,16.42
2023-04-29T07:50:50.158Z,16.46
2023-04-29T07:53:39.905Z,16.51
2023-04-29T07:56:30.633Z,16.60
2023-04-29T07:59:20.035Z,16.72
2023-04-29T08:02:09.557Z,16.80
2023-04-29T08:04:59.486Z,16.91
2023-04-29T08:07:49.527Z,16.99
2023-04-29T08:10:43.276Z,17.13
2023-04-29T08:13:34.122Z,17.25
2023-04-29T08:16:26.265Z,17.37
2023-04-29T08:19:15.883Z,17.47
2023-04-29T08:22:05.863Z,17.59
2023-04-29T08:24:55.238Z,17.67
2023-04-29T08:27:46.549Z,17.71
2023-04-29T08:30:41.008Z,17.74
2023-04-29T08:33:30.393Z,17.81
2023-04-29T08:36:19.892Z,17.79
2023-04-29T08:39:09.522Z,17.76
2023-04-29T08:41:59.474Z,17.79
2023-04-29T08:44:49.184Z,17.78
2023-04-29T08:47:40.965Z,17.71
2023-04-29T08:50:31.131Z,17.68
2023-04-29T08:53:20.558Z,17.63
2023-04-29T08:56:17.602Z,17.58
2023-04-29T08:59:09.189Z,17.49
2023-04-29T09:02:00.123Z,17.57
2023-04-29T09:04:59.268Z,17.51
2023-04-29T09:07:48.953Z,17.71
2023-04-29T09:10:38.602Z,17.93
2023-04-29T09:13:30.478Z,18.22
2023-04-29T09:16:19.721Z,18.66
2023-04-29T09:19:09.217Z,19.22
2023-04-29T09:22:00.713Z,19.97
2023-04-29T09:24:49.975Z,20.62
2023-04-29T09:27:39.322Z,21.04
2023-04-29T09:30:30.162Z,21.23
2023-04-29T09:33:19.595Z,21.22
2023-04-29T09:36:09.801Z,21.34
2023-04-29T09:39:00.921Z,21.31
2023-04-29T09:42:03.155Z,21.32
2023-04-29T09:44:53.225Z,21.86
2023-04-29T09:47:43.041Z,22.46
2023-04-29T09:50:32.606Z,22.88
2023-04-29T09:53:31.742Z,22.85
2023-04-29T09:56:22.890Z,22.54
2023-04-29T09:59:12.102Z,22.18
2023-04-29T10:02:01.680Z,21.77
2023-04-29T10:04:57.817Z,21.27
2023-04-29T10:07:49.262Z,20.97
2023-04-29T10:10:38.557Z,20.77
2023-04-29T10:13:30.066Z,20.61
2023-04-29T10:16:30.634Z,20.55
2023-04-29T10:19:35.346Z,20.51
2023-04-29T10:22:32.864Z,20.58
2023-04-29T10:25:24.703Z,20.54
2023-04-29T10:28:17.622Z,20.33
2023-04-29T10:31:08.926Z,20.06
2023-04-29T10:33:59.245Z,19.99
2023-04-29T10:36:50.170Z,19.93
2023-04-29T10:39:52.194Z,19.92
2023-04-29T10:42:47.137Z,19.89
2023-04-29T10:45:36.910Z,19.81
2023-04-29T10:48:28.296Z,19.92
2023-04-29T10:51:35.495Z,19.91
2023-04-29T10:54:26.140Z,19.92
2023-04-29T10:57:23.447Z,19.85
2023-04-29T11:00:24.502Z,20.02
2023-04-29T11:03:50.877Z,19.93
2023-04-29T11:06:44.295Z,20.06
2023-04-29T11:09:38.687Z,20.11
2023-04-29T11:12:28.160Z,20.39
2023-04-29T11:15:19.979Z,21.10
2023-04-29T11:18:13.109Z,21.43
2023-04-29T11:21:18.583Z,21.48
2023-04-29T11:24:08.578Z,21.50
2023-04-29T11:27:04.518Z,21.50
2023-04-29T11:29:58.685Z,21.36
2023-04-29T11:32:50.676Z,21.35
2023-04-29T11:35:41.652Z,21.57
2023-04-29T11:38:33.555Z,21.59
2023-04-29T11:41:23.301Z,21.78
2023-04-29T11:44:14.358Z,21.86
2023-04-29T11:47:04.579Z,21.66
2023-04-29T11:49:54.887Z,21.58
2023-04-29T11:52:44.761Z,21.63
2023-04-29T11:55:36.326Z,21.64
2023-04-29T11:58:26.317Z,21.46
2023-04-29T12:01:15.717Z,21.34
2023-04-29T12:04:07.478Z,21.21
2023-04-29T12:06:59.921Z,21.00
2023-04-29T12:09:49.233Z,21.01
2023-04-29T12:12:41.064Z,21.01
2023-04-29T12:15:30.881Z,21.15
2023-04-29T12:18:23.496Z,21.29
2023-04-29T12:21:12.842Z,21.17
2023-04-29T12:24:04.696Z,21.24
2023-04-29T12:26:55.058Z,21.18
2023-04-29T12:29:47.774Z,21.12
2023-04-29T12:32:37.892Z,21.33
2023-04-29T12:35:27.214Z,21.56
2023-04-29T12:38:21.998Z,21.83
2023-04-29T12:41:13.668Z,22.34
2023-04-29T12:44:04.270Z,23.08
2023-04-29T12:46:58.282Z,23.70
2023-04-29T12:49:50.385Z,23.83
2023-04-29T12:52:40.099Z,24.03
2023-04-29T12:55:29.860Z,24.54
2023-04-29T12:58:19.174Z,25.12
2023-04-29T13:01:08.450Z,25.70
2023-04-29T13:03:59.215Z,26.22
2023-04-29T13:06:48.621Z,26.58
2023-04-29T13:09:41.614Z,26.73
2023-04-29T13:12:30.986Z,26.52
2023-04-29T13:15:20.496Z,26.36
2023-04-29T13:18:09.714Z,25.94
2023-04-29T13:21:02.236Z,26.02
2023-04-29T13:23:52.179Z,26.01
2023-04-29T13:26:41.476Z,25.64
2023-04-29T13:29:31.334Z,25.12
2023-04-29T13:32:24.736Z,24.79
2023-04-29T13:35:14.128Z,24.96
2023-04-29T13:38:05.313Z,24.72
2023-04-29T13:40:55.167Z,24.34
2023-04-29T13:43:45.462Z,24.28
2023-04-29T13:46:34.976Z,24.63
2023-04-29T13:49:57.357Z,24.57
2023-04-29T13:56:15.441Z,24.10
2023-04-29T14:04:21.431Z,23.28
2023-04-29T14:07:10.939Z,23.47
2023-04-29T14:10:00.274Z,23.77
2023-04-29T14:12:50.975Z,23.85
2023-04-29T14:15:40.260Z,23.72
2023-04-29T14:18:30.664Z,24.22
2023-04-29T14:21:22.505Z,24.70
2023-04-29T14:24:11.907Z,24.82
2023-04-29T14:27:02.156Z,24.70
2023-04-29T14:29:52.836Z,24.53
2023-04-29T14:32:42.209Z,24.53
2023-04-29T14:35:31.874Z,24.70
2023-04-29T14:38:21.188Z,24.47
2023-04-29T14:41:10.552Z,24.23
2023-04-29T14:43:59.985Z,23.61
2023-04-29T14:46:50.677Z,23.37
2023-04-29T14:49:40.128Z,22.95
2023-04-29T14:52:29.406Z,22.63
2023-04-29T14:55:18.968Z,22.27
2023-04-29T14:58:10.034Z,21.93
2023-04-29T15:00:59.453Z,21.79
2023-04-29T15:03:50.158Z,21.52
2023-04-29T15:06:40.827Z,21.42
2023-04-29T15:09:30.711Z,21.35
2023-04-29T15:12:21.485Z,21.32
2023-04-29T15:15:12.038Z,21.88
2023-04-29T15:18:01.495Z,22.60
2023-04-29T15:20:52.176Z,23.32
2023-04-29T15:23:41.667Z,23.90
2023-04-29T15:26:30.979Z,24.34
2023-04-29T15:29:20.240Z,24.39
2023-04-29T15:32:10.669Z,24.73
2023-04-29T15:35:00.132Z,24.73
2023-04-29T15:37:50.948Z,24.82
2023-04-29T15:40:40.357Z,24.94
2023-04-29T15:43:29.807Z,24.92
2023-04-29T15:46:19.407Z,24.99
2023-04-29T15:49:08.597Z,24.84
2023-04-29T15:51:57.932Z,24.65
2023-04-29T15:54:48.709Z,24.53
2023-04-29T15:57:41.460Z,24.26
2023-04-29T16:00:30.758Z,24.09
2023-04-29T16:03:20.449Z,23.85
2023-04-29T16:06:10.025Z,23.68
2023-04-29T16:09:06.608Z,23.55
2023-04-29T16:11:58.467Z,23.51
2023-04-29T16:14:47.734Z,23.50
2023-04-29T16:17:37.148Z,23.44
2023-04-29T16:20:27.094Z,23.44
2023-04-29T16:23:16.294Z,23.40
2023-04-29T16:26:06.093Z,23.15
2023-04-29T16:28:56.779Z,22.93
2023-04-29T16:31:46.295Z,22.50
2023-04-29T16:34:35.706Z,22.33
2023-04-29T16:37:25.150Z,22.05
2023-04-29T16:40:15.400Z,21.82
2023-04-29T16:43:04.792Z,21.59
2023-04-29T16:45:55.443Z,21.23
2023-04-29T16:48:44.870Z,20.98
2023-04-29T16:51:34.656Z,20.63
2023-04-29T16:54:25.344Z,20.34
2023-04-29T16:57:14.898Z,20.17
2023-04-29T17:00:04.350Z,19.92
2023-04-29T17:02:58.456Z,19.69
2023-04-29T17:05:48.854Z,19.51
2023-04-29T17:08:38.313Z,19.43
2023-04-29T17:11:27.780Z,19.33
2023-04-29T17:14:17.445Z,19.33
2023-04-29T17:17:07.184Z,19.19
2023-04-29T17:19:58.347Z,19.03
2023-04-29T17:22:48.013Z,18.89
2023-04-29T17:25:39.152Z,18.77
2023-04-29T17:28:29.370Z,18.74
2023-04-29T17:31:20.876Z,18.73
2023-04-29T17:34:18.459Z,18.72
2023-04-29T17:37:09.568Z,18.84
2023-04-29T17:39:58.765Z,18.90
2023-04-29T17:42:47.947Z,18.92
2023-04-29T17:45:41.879Z,18.93
2023-04-29T17:48:32.464Z,18.97
2023-04-29T17:51:21.741Z,18.99
2023-04-29T17:54:12.437Z,19.07
2023-04-29T17:57:03.412Z,19.11
2023-04-29T17:59:52.973Z,19.23
2023-04-29T18:02:42.738Z,19.16
2023-04-29T18:05:32.190Z,19.29
2023-04-29T18:08:21.484Z,19.26
2023-04-29T18:11:12.718Z,19.24
2023-04-29T18:14:02.045Z,19.20
2023-04-29T18:16:51.691Z,19.18
2023-04-29T18:19:41.144Z,19.11
2023-04-29T18:22:30.464Z,19.14
2023-04-29T18:25:19.725Z,19.09
2023-04-29T18:28:24.200Z,19.00
2023-04-29T18:31:14.449Z,18.85
2023-04-29T18:34:03.629Z,18.80
2023-04-29T18:36:53.090Z,18.73
2023-04-29T18:39:42.761Z,18.64
2023-04-29T18:42:32.015Z,18.57
2023-04-29T18:45:22.871Z,18.54
2023-04-29T18:48:13.061Z,18.52
2023-04-29T18:51:04.431Z,18.50
2023-04-29T18:53:53.797Z,18.56
2023-04-29T18:56:44.737Z,18.55
2023-04-29T18:59:36.009Z,18.59
2023-04-29T19:02:26.801Z,18.57
2023-04-29T19:05:16.575Z,18.47
2023-04-29T19:08:06.397Z,18.50
2023-04-29T19:10:56.252Z,18.45
2023-04-29T19:13:46.716Z,18.38
2023-04-29T19:16:37.252Z,18.32
2023-04-29T19:19:28.164Z,18.25
2023-04-29T19:22:17.588Z,18.21
2023-04-29T19:25:07.982Z,18.17
2023-04-29T19:27:57.333Z,18.09
2023-04-29T19:30:46.890Z,18.02
2023-04-29T19:33:36.490Z,17.96
2023-04-29T19:36:27.456Z,17.91
2023-04-29T19:39:16.920Z,17.92
2023-04-29T19:42:06.363Z,17.89
2023-04-29T19:44:56.333Z,17.91
2023-04-29T19:47:46.275Z,17.92
2023-04-29T19:50:35.567Z,17.92
2023-04-29T19:53:32.574Z,17.85
2023-04-29T19:56:21.895Z,17.92
2023-04-29T19:59:12.243Z,17.88
2023-04-29T20:02:01.829Z,17.88
2023-04-29T20:04:51.441Z,17.88
2023-04-29T20:07:41.435Z,17.83
2023-04-29T20:10:32.389Z,17.82
2023-04-29T20:13:21.764Z,17.77
2023-04-29T20:16:11.502Z,17.71
2023-04-29T20:19:00.873Z,17.70
2023-04-29T20:21:50.858Z,17.74
2023-04-29T20:24:40.093Z,17.72
2023-04-29T20:27:30.817Z,17.63
2023-04-29T20:30:20.101Z,17.63
2023-04-29T20:33:09.622Z,17.65
2023-04-29T20:36:05.474Z,17.61
2023-04-29T20:38:54.644Z,17.58
2023-04-29T20:41:43.976Z,17.60
2023-04-29T20:44:35.108Z,17.47
2023-04-29T20:47:24.367Z,17.44
2023-04-29T20:50:13.697Z,17.33
2023-04-29T20:53:03.410Z,17.26
2023-04-29T20:55:52.626Z,17.16
2023-04-29T20:58:41.902Z,17.09
2023-04-29T21:01:32.534Z,16.96
2023-04-29T21:04:22.295Z,16.93
2023-04-29T21:07:11.586Z,16.88
2023-04-29T21:10:00.960Z,16.70
2023-04-29T21:12:50.208Z,16.70
2023-04-29T21:15:39.583Z,16.64
2023-04-29T21:18:30.230Z,16.61
2023-04-29T21:21:19.445Z,16.63
2023-04-29T21:24:08.667Z,16.58
2023-04-29T21:26:57.884Z,16.57
2023-04-29T21:29:47.175Z,16.56
2023-04-29T21:32:36.527Z,16.54
2023-04-29T21:35:28.215Z,16.35
2023-04-29T21:38:17.498Z,16.54
2023-04-29T21:41:09.989Z,16.55
2023-04-29T21:44:01.678Z,16.53
2023-04-29T21:46:51.042Z,16.56
2023-04-29T21:49:40.449Z,16.58
2023-04-29T21:52:35.145Z,16.64
2023-04-29T21:55:24.651Z,16.65
2023-04-29T21:58:14.180Z,16.70
2023-04-29T22:01:15.848Z,16.62
2023-04-29T22:04:05.158Z,16.61
2023-04-29T22:06:54.472Z,16.66
2023-04-29T22:09:49.458Z,16.70
2023-04-29T22:12:38.822Z,16.70
2023-04-29T22:15:29.426Z,16.71
2023-04-29T22:18:18.815Z,16.71
2023-04-29T22:21:08.865Z,16.76
2023-04-29T22:23:58.108Z,16.82
2023-04-29T22:26:48.740Z,16.85
2023-04-29T22:29:38.023Z,16.86
2023-04-29T22:32:27.390Z,16.81
2023-04-29T22:35:17.176Z,16.85
2023-04-29T22:38:06.490Z,16.76
2023-04-29T22:40:56.667Z,16.85
2023-04-29T22:43:47.294Z,16.89
2023-04-29T22:46:36.727Z,16.85
2023-04-29T22:49:26.281Z,16.84
2023-04-29T22:52:15.567Z,16.86
2023-04-29T22:55:05.304Z,16.87
2023-04-29T22:57:54.581Z,16.88
2023-04-29T23:00:46.968Z,16.81
2023-04-29T23:03:36.650Z,16.69
2023-04-29T23:06:26.414Z,16.76
2023-04-29T23:09:15.811Z,16.65
2023-04-29T23:12:05.932Z,16.67
2023-04-29T23:14:55.657Z,16.71
2023-04-29T23:17:46.367Z,16.67
2023-04-29T23:20:35.694Z,16.69
2023-04-29T23:23:25.083Z,16.59
2023-04-29T23:26:14.723Z,16.62
2023-04-29T23:29:04.147Z,16.63
2023-04-29T23:31:53.435Z,16.65
2023-04-29T23:34:44.219Z,16.70
2023-04-29T23:37:33.533Z,16.69
2023-04-29T23:40:22.844Z,16.71
2023-04-29T23:43:12.260Z,16.73
2023-04-29T23:46:01.476Z,16.63
2023-04-29T23:48:50.956Z,16.72
2023-04-29T23:51:41.754Z,16.77
2023-04-29T23:54:30.965Z,16.74
2023-04-29T23:57:20.180Z,16.73
